Terminal Aerodrome Forecast
Issued by NWS Atlanta, GA

Home | Current Version | Previous Version | Text Only | Print | Product List | Glossary On
Versions: 1 2 3 4 5 6 7 8 9 10 11 12 13 14 15 16 17 18 19 20 21 22 23 24 25 26 27 28 29 30 31 32 33 34 35 36 37 38 39 40 41 42 43 44 45 46 47 48 49 50
468
FTAK31 PAJK 181143
TAFAHN
TAF
PAHN 181143Z 1812/1912 10005KT P6SM BKN020 BKN080
     FM181700 11012KT P6SM VCSH SCT020 OVC080
     FM181900 12012G20KT P6SM -RA SCT020 OVC050
     FM182300 12015G25KT 6SM -RA BR BKN020 OVC040
     FM190400 13018G30KT 5SM -RA BR OVC020
     AMD LTD TO CLD VIS AND WIND=

USA.gov is the U.S. government's official web portal to all federal, state and local government web resources and services.